Rockville, Virginia
Current Conditions -  °F | °C
As of 10:54 AM on Friday 24 Oct 2014 (Local Time) from KOFP Reporting Station
Clear Clear  
Wind Chill: 59°   Ceiling: Unl
Heat Index: 59°   Visibility: 10mi
Dew Point: 44°   Wind: 6mph
Humidity: 58%   Direction: 320°NW
Pressure: 30.03"   Gusts: NA
Location:  37.73°N, 77.68°W
Report Text: KOFP 241454Z AUTO 32005KT 10SM CLR 15/07 A3003 RMK AO2 SLP167 T01500067 51005
Loading
Personal Weather Stations






























Interactive Weather Map
Tropical Storm Tracking
New forecast layout! Learn more

10-Day Weather Forecast

Advertisements
Track Severe Weather on mobile